createdAt,value
2019-05-07T00:00:49.903Z,95701.09
2019-05-07T00:03:18.260Z,95698.01
2019-05-07T00:05:46.692Z,95697.74
2019-05-07T00:08:15.094Z,95695.23
2019-05-07T00:10:43.423Z,95694.56
2019-05-07T00:13:12.864Z,95698.87
2019-05-07T00:16:46.287Z,95691.86
2019-05-07T00:19:14.631Z,95693.95
2019-05-07T00:21:42.996Z,95696.20
2019-05-07T00:24:13.211Z,95692.07
2019-05-07T00:29:14.024Z,95694.84
2019-05-07T00:31:43.389Z,95691.80
2019-05-07T00:34:12.598Z,95694.04
2019-05-07T00:39:36.801Z,95692.55
2019-05-07T00:45:17.888Z,95679.84
2019-05-07T00:47:38.722Z,95680.30
2019-05-07T00:50:07.813Z,95678.38
2019-05-07T00:52:36.150Z,95673.93
2019-05-07T00:55:04.499Z,95675.13
2019-05-07T00:57:32.844Z,95675.77
2019-05-07T01:00:02.205Z,95678.38
2019-05-07T01:02:29.507Z,95679.14
2019-05-07T01:04:57.888Z,95682.50
2019-05-07T01:07:26.246Z,95686.29
2019-05-07T01:09:54.616Z,95682.25
2019-05-07T01:12:22.940Z,95679.55
2019-05-07T01:14:52.873Z,95678.50
2019-05-07T01:17:19.621Z,95674.77
2019-05-07T01:19:48.218Z,95681.33
2019-05-07T01:22:16.571Z,95679.02
2019-05-07T01:24:45.870Z,95677.92
2019-05-07T01:27:14.249Z,95676.45
2019-05-07T01:29:43.082Z,95672.98
2019-05-07T01:32:13.348Z,95675.84
2019-05-07T01:34:42.944Z,95675.17
2019-05-07T01:37:12.423Z,95671.84
2019-05-07T01:39:39.415Z,95672.31
2019-05-07T01:42:07.944Z,95672.55
2019-05-07T01:44:36.432Z,95672.00
2019-05-07T01:47:04.917Z,95677.97
2019-05-07T01:49:33.335Z,95675.88
2019-05-07T01:52:03.682Z,95672.14
2019-05-07T01:54:33.255Z,95668.25
2019-05-07T01:57:02.826Z,95668.73
2019-05-07T01:59:31.971Z,95666.83
2019-05-07T02:01:58.183Z,95666.98
2019-05-07T02:04:26.517Z,95670.02
2019-05-07T02:07:02.698Z,95670.95
2019-05-07T02:09:39.674Z,95673.25
2019-05-07T02:14:42.365Z,95673.13
2019-05-07T02:17:13.466Z,95671.58
2019-05-07T02:19:42.360Z,95660.20
2019-05-07T02:22:08.249Z,95658.17
2019-05-07T02:24:36.623Z,95663.16
2019-05-07T02:27:05.000Z,95659.61
2019-05-07T02:29:33.319Z,95656.66
2019-05-07T02:32:04.618Z,95651.91
2019-05-07T02:34:30.017Z,95646.08
2019-05-07T02:36:58.370Z,95649.19
2019-05-07T02:39:33.308Z,95646.96
2019-05-07T02:41:59.537Z,95647.64
2019-05-07T02:44:27.906Z,95649.27
2019-05-07T02:46:58.700Z,95641.39
2019-05-07T02:49:28.273Z,95643.80
2019-05-07T02:52:13.633Z,95640.48
2019-05-07T02:54:46.964Z,95638.13
2019-05-07T02:57:17.091Z,95637.05
2019-05-07T03:02:18.848Z,95636.31
2019-05-07T03:04:47.211Z,95631.84
2019-05-07T03:07:15.694Z,95639.82
2019-05-07T03:09:44.038Z,95639.84
2019-05-07T03:12:13.142Z,95636.20
2019-05-07T03:14:43.541Z,95637.11
2019-05-07T03:17:09.096Z,95633.72
2019-05-07T03:19:37.466Z,95637.22
2019-05-07T03:24:58.201Z,95636.16
2019-05-07T03:27:26.551Z,95633.55
2019-05-07T03:29:55.813Z,95630.56
2019-05-07T03:32:29.122Z,95631.84
2019-05-07T03:34:58.286Z,95629.04
2019-05-07T03:37:25.785Z,95628.66
2019-05-07T03:39:54.125Z,95632.45
2019-05-07T03:42:23.573Z,95631.42
2019-05-07T03:44:53.879Z,95628.14
2019-05-07T03:47:38.424Z,95633.65
2019-05-07T03:50:06.760Z,95628.80
2019-05-07T03:52:35.105Z,95635.66
2019-05-07T03:55:03.946Z,95635.13
2019-05-07T03:57:33.348Z,95629.23
2019-05-07T04:00:03.931Z,95628.50
2019-05-07T04:05:04.874Z,95621.58
2019-05-07T04:07:34.205Z,95626.25
2019-05-07T04:12:36.826Z,95625.84
2019-05-07T04:15:05.166Z,95624.94
2019-05-07T04:17:34.105Z,95629.30
2019-05-07T04:20:04.587Z,95630.70
2019-05-07T04:22:30.255Z,95630.09
2019-05-07T04:25:13.120Z,95632.36
2019-05-07T04:27:47.118Z,95626.33
2019-05-07T04:30:13.142Z,95630.97
2019-05-07T04:32:43.838Z,95629.80
2019-05-07T04:35:12.715Z,95635.30
2019-05-07T04:37:42.747Z,95631.91
2019-05-07T04:40:09.099Z,95631.05
2019-05-07T04:42:37.483Z,95632.58
2019-05-07T04:45:06.792Z,95632.91
2019-05-07T04:47:42.892Z,95624.78
2019-05-07T04:50:03.981Z,95626.71
2019-05-07T04:52:35.032Z,95625.87
2019-05-07T04:55:05.144Z,95629.27
2019-05-07T04:57:33.471Z,95628.14
2019-05-07T05:00:03.311Z,95631.41
2019-05-07T05:02:34.398Z,95630.09
2019-05-07T05:05:03.726Z,95632.05
2019-05-07T05:07:33.471Z,95633.69
2019-05-07T05:10:02.788Z,95635.44
2019-05-07T05:12:28.672Z,95642.45
2019-05-07T05:14:57.013Z,95638.98
2019-05-07T05:17:25.417Z,95640.31
2019-05-07T05:19:54.706Z,95639.78
2019-05-07T05:25:22.741Z,95639.48
2019-05-07T05:27:52.362Z,95641.36
2019-05-07T05:30:22.034Z,95641.99
2019-05-07T05:32:52.033Z,95652.22
2019-05-07T05:35:18.677Z,95650.95
2019-05-07T05:40:22.687Z,95646.70
2019-05-07T05:45:44.245Z,95653.36
2019-05-07T05:48:13.580Z,95650.66
2019-05-07T05:50:57.637Z,95650.77
2019-05-07T05:53:36.674Z,95650.38
2019-05-07T05:56:06.028Z,95646.78
2019-05-07T05:58:39.934Z,95653.57
2019-05-07T06:01:13.117Z,95653.55
2019-05-07T06:06:38.335Z,95650.81
2019-05-07T06:09:12.922Z,95652.89
2019-05-07T06:14:38.305Z,95653.72
2019-05-07T06:17:22.288Z,95653.12
2019-05-07T06:24:58.924Z,95653.45
2019-05-07T06:27:28.208Z,95649.56
2019-05-07T06:29:57.592Z,95650.36
2019-05-07T06:32:26.004Z,95655.46
2019-05-07T06:34:54.356Z,95650.23
2019-05-07T06:37:22.970Z,95653.23
2019-05-07T06:40:03.801Z,95653.02
2019-05-07T06:42:43.867Z,95655.66
2019-05-07T06:47:46.513Z,95650.72
2019-05-07T06:50:14.881Z,95648.75
2019-05-07T06:52:43.265Z,95652.12
2019-05-07T06:55:12.210Z,95649.19
2019-05-07T06:57:39.960Z,95649.35
2019-05-07T07:00:19.950Z,95647.79
2019-05-07T07:02:52.498Z,95646.12
2019-05-07T07:05:23.455Z,95645.58
2019-05-07T07:07:48.771Z,95641.92
2019-05-07T07:10:22.722Z,95642.02
2019-05-07T07:12:52.873Z,95640.45
2019-05-07T07:15:19.480Z,95640.87
2019-05-07T07:17:52.489Z,95641.39
2019-05-07T07:20:21.854Z,95638.59
2019-05-07T07:22:48.975Z,95635.26
2019-05-07T07:25:17.317Z,95632.45
2019-05-07T07:27:45.827Z,95631.95
2019-05-07T07:32:48.432Z,95630.03
2019-05-07T07:37:52.970Z,95632.58
2019-05-07T07:43:15.729Z,95626.89
2019-05-07T07:45:44.069Z,95625.16
2019-05-07T07:48:13.224Z,95623.20
2019-05-07T07:50:42.119Z,95618.13
2019-05-07T07:53:09.078Z,95617.91
2019-05-07T07:55:37.424Z,95615.41
2019-05-07T07:58:05.757Z,95621.11
2019-05-07T08:00:36.782Z,95616.31
2019-05-07T08:03:06.099Z,95615.30
2019-05-07T08:05:34.462Z,95614.04
2019-05-07T08:10:37.034Z,95609.03
2019-05-07T08:13:05.433Z,95604.61
2019-05-07T08:15:35.655Z,95600.91
2019-05-07T08:18:03.989Z,95598.55
2019-05-07T08:23:09.631Z,95596.50
2019-05-07T08:28:12.284Z,95592.84
2019-05-07T08:30:42.013Z,95588.77
2019-05-07T08:33:09.801Z,95589.27
2019-05-07T08:35:37.376Z,95581.58
2019-05-07T08:38:05.728Z,95577.34
2019-05-07T08:40:35.051Z,95580.55
2019-05-07T08:45:43.398Z,95574.88
2019-05-07T08:48:12.592Z,95573.69
2019-05-07T08:50:41.842Z,95567.44
2019-05-07T08:53:08.321Z,95567.56
2019-05-07T08:55:37.620Z,95567.91
2019-05-07T09:00:41.804Z,95569.81
2019-05-07T09:03:19.327Z,95564.80
2019-05-07T09:05:37.058Z,95560.61
2019-05-07T09:08:05.404Z,95557.23
2019-05-07T09:10:33.877Z,95560.90
2019-05-07T09:13:02.820Z,95559.39
2019-05-07T09:15:32.081Z,95554.45
2019-05-07T09:17:58.981Z,95551.34
2019-05-07T09:20:27.319Z,95554.53
2019-05-07T09:22:55.666Z,95547.22
2019-05-07T09:28:02.635Z,95540.78
2019-05-07T09:30:29.658Z,95540.20
2019-05-07T09:35:34.672Z,95522.83
2019-05-07T09:38:03.292Z,95525.50
2019-05-07T09:40:32.046Z,95521.20
2019-05-07T09:42:59.835Z,95517.47
2019-05-07T09:45:28.240Z,95518.38
2019-05-07T09:47:56.608Z,95517.33
2019-05-07T09:52:59.143Z,95512.51
2019-05-07T09:55:27.523Z,95505.97
2019-05-07T10:00:32.009Z,95508.05
2019-05-07T10:02:58.532Z,95504.98
2019-05-07T10:05:26.876Z,95512.22
2019-05-07T10:07:55.241Z,95513.48
2019-05-07T10:10:23.599Z,95506.91
2019-05-07T10:12:52.530Z,95500.12
2019-05-07T10:15:22.549Z,95499.17
2019-05-07T10:17:55.132Z,95493.11
2019-05-07T10:20:23.526Z,95502.17
2019-05-07T10:22:52.066Z,95502.50
2019-05-07T10:25:22.270Z,95493.02
2019-05-07T10:27:48.653Z,95484.65
2019-05-07T10:30:17.984Z,95491.16
2019-05-07T10:32:46.341Z,95486.13
2019-05-07T10:35:14.745Z,95488.05
2019-05-07T10:37:43.140Z,95486.77
2019-05-07T10:40:12.309Z,95482.00
2019-05-07T10:42:39.936Z,95479.35
2019-05-07T10:45:13.110Z,95476.80
2019-05-07T10:50:34.920Z,95469.77
2019-05-07T10:52:48.662Z,95468.60
2019-05-07T10:55:17.006Z,95462.55
2019-05-07T10:57:45.353Z,95460.80
2019-05-07T11:00:13.709Z,95459.75
2019-05-07T11:02:42.584Z,95456.22
2019-05-07T11:05:12.761Z,95438.20
2019-05-07T11:07:38.845Z,95442.89
2019-05-07T11:10:07.216Z,95441.34
2019-05-07T11:12:35.588Z,95442.66
2019-05-07T11:15:03.980Z,95443.41
2019-05-07T11:20:12.229Z,95432.97
2019-05-07T11:22:40.128Z,95428.97
2019-05-07T11:25:09.403Z,95422.23
2019-05-07T11:27:37.790Z,95425.99
2019-05-07T11:30:06.782Z,95412.75
2019-05-07T11:32:35.204Z,95419.08
2019-05-07T11:35:03.564Z,95411.84
2019-05-07T11:37:31.975Z,95407.34
2019-05-07T11:40:03.010Z,95399.92
2019-05-07T11:42:29.571Z,95399.10
2019-05-07T11:44:57.931Z,95389.97
2019-05-07T11:50:05.869Z,95394.39
2019-05-07T11:55:12.049Z,95376.15
2019-05-07T11:57:38.944Z,95378.02
2019-05-07T12:00:07.284Z,95369.44
2019-05-07T12:02:36.006Z,95370.20
2019-05-07T12:05:04.359Z,95368.00
2019-05-07T12:07:32.870Z,95364.94
2019-05-07T12:10:04.776Z,95366.22
2019-05-07T12:15:03.848Z,95353.38
2019-05-07T12:17:32.197Z,95350.61
2019-05-07T12:20:02.420Z,95350.88
2019-05-07T12:22:34.676Z,95351.37
2019-05-07T12:25:03.027Z,95346.19
2019-05-07T12:27:32.397Z,95347.46
2019-05-07T12:30:00.723Z,95349.81
2019-05-07T12:35:03.460Z,95335.31
2019-05-07T12:37:32.059Z,95332.33
2019-05-07T12:40:01.866Z,95327.11
2019-05-07T12:42:28.679Z,95322.17
2019-05-07T12:44:57.096Z,95318.78
2019-05-07T12:47:25.466Z,95314.16
2019-05-07T12:49:53.819Z,95314.80
2019-05-07T12:52:22.796Z,95314.98
2019-05-07T12:54:52.342Z,95316.84
2019-05-07T12:57:19.065Z,95320.25
2019-05-07T12:59:49.613Z,95320.34
2019-05-07T13:02:33.258Z,95316.45
2019-05-07T13:04:44.993Z,95318.15
2019-05-07T13:07:14.276Z,95311.14
2019-05-07T13:09:42.865Z,95310.66
2019-05-07T13:17:19.618Z,95307.86
2019-05-07T13:19:47.962Z,95297.48
2019-05-07T13:22:16.334Z,95299.86
2019-05-07T13:27:19.048Z,95292.01
2019-05-07T13:29:47.500Z,95283.78
2019-05-07T13:32:15.838Z,95285.73
2019-05-07T13:34:44.184Z,95290.48
2019-05-07T13:37:14.728Z,95292.84
2019-05-07T13:39:53.737Z,95288.02
2019-05-07T13:42:27.601Z,95282.64
2019-05-07T13:47:34.279Z,95276.37
2019-05-07T13:50:02.832Z,95277.02
2019-05-07T13:52:32.760Z,95277.33
2019-05-07T13:54:59.406Z,95273.48
2019-05-07T13:57:27.762Z,95269.36
2019-05-07T13:59:56.132Z,95266.47
2019-05-07T14:02:24.927Z,95263.90
2019-05-07T14:07:27.598Z,95264.58
2019-05-07T14:09:55.952Z,95264.34
2019-05-07T14:12:24.298Z,95262.26
2019-05-07T14:17:26.951Z,95257.16
2019-05-07T14:19:55.331Z,95253.12
2019-05-07T14:22:23.705Z,95244.72
2019-05-07T14:24:53.015Z,95240.07
2019-05-07T14:29:54.837Z,95239.23
2019-05-07T14:32:24.994Z,95239.80
2019-05-07T14:34:58.975Z,95234.45
2019-05-07T14:37:27.420Z,95229.05
2019-05-07T14:39:55.789Z,95226.48
2019-05-07T14:42:24.167Z,95225.36
2019-05-07T14:47:27.097Z,95231.05
2019-05-07T14:49:57.432Z,95230.16
2019-05-07T14:52:32.145Z,95233.99
2019-05-07T14:57:28.493Z,95241.57
2019-05-07T14:59:56.846Z,95242.90
2019-05-07T15:02:25.195Z,95238.23
2019-05-07T15:04:53.561Z,95230.37
2019-05-07T15:07:22.620Z,95229.39
2019-05-07T15:09:51.886Z,95231.23
2019-05-07T15:12:18.678Z,95236.28
2019-05-07T15:17:22.311Z,95240.41
2019-05-07T15:19:52.109Z,95233.81
2019-05-07T15:22:21.934Z,95233.02
2019-05-07T15:24:52.379Z,95232.25
2019-05-07T15:27:18.662Z,95233.84
2019-05-07T15:29:47.044Z,95231.44
2019-05-07T15:32:15.388Z,95227.84
2019-05-07T15:34:43.745Z,95221.06
2019-05-07T15:37:12.350Z,95230.00
2019-05-07T15:42:17.893Z,95220.28
2019-05-07T15:44:46.235Z,95226.24
2019-05-07T15:47:14.602Z,95219.63
2019-05-07T15:49:42.983Z,95216.64
2019-05-07T15:52:14.693Z,95210.02
2019-05-07T15:54:43.163Z,95209.31
2019-05-07T15:57:12.669Z,95210.31
2019-05-07T15:59:41.802Z,95215.16
2019-05-07T16:02:08.960Z,95211.02
2019-05-07T16:04:37.297Z,95199.79
2019-05-07T16:07:05.664Z,95207.03
2019-05-07T16:09:41.727Z,95205.66
2019-05-07T16:12:07.933Z,95204.66
2019-05-07T16:58:05.411Z,95188.56
2019-05-07T17:00:37.159Z,95189.90
2019-05-07T17:08:19.477Z,95191.13
2019-05-07T17:10:47.825Z,95190.33
2019-05-07T17:15:55.898Z,95194.49
2019-05-07T17:18:24.248Z,95199.55
2019-05-07T17:20:52.599Z,95197.36
2019-05-07T17:23:22.630Z,95195.16
2019-05-07T17:25:49.408Z,95193.92
2019-05-07T17:28:17.788Z,95187.78
2019-05-07T17:30:46.139Z,95190.99
2019-05-07T17:33:14.480Z,95188.28
2019-05-07T17:35:42.834Z,95191.13
2019-05-07T17:38:12.862Z,95186.68
2019-05-07T17:40:39.526Z,95185.84
2019-05-07T17:43:07.898Z,95186.63
2019-05-07T17:45:36.236Z,95187.27
2019-05-07T17:48:04.600Z,95183.19
2019-05-07T17:50:34.835Z,95181.94
2019-05-07T17:53:03.189Z,95183.06
2019-05-07T17:55:33.165Z,95182.78
2019-05-07T17:58:01.883Z,95181.27
2019-05-07T18:00:28.291Z,95187.23
2019-05-07T18:03:02.604Z,95183.39
2019-05-07T18:08:04.715Z,95184.98
2019-05-07T18:10:33.081Z,95181.50
2019-05-07T18:13:01.461Z,95180.35
2019-05-07T18:15:32.236Z,95179.39
2019-05-07T18:18:00.882Z,95181.39
2019-05-07T18:23:06.892Z,95180.15
2019-05-07T18:25:33.791Z,95177.83
2019-05-07T18:28:02.153Z,95175.78
2019-05-07T18:30:32.546Z,95174.89
2019-05-07T18:35:55.300Z,95173.58
2019-05-07T18:38:29.853Z,95176.27
2019-05-07T18:40:58.185Z,95182.91
2019-05-07T18:43:29.888Z,95182.00
2019-05-07T18:45:58.220Z,95174.48
2019-05-07T18:48:27.474Z,95177.37
2019-05-07T18:51:02.674Z,95176.16
2019-05-07T18:53:31.768Z,95181.94
2019-05-07T18:56:17.248Z,95182.48
2019-05-07T18:59:03.119Z,95181.95
2019-05-07T19:01:32.666Z,95182.38
2019-05-07T19:04:01.929Z,95177.70
2019-05-07T19:06:28.181Z,95176.33
2019-05-07T19:08:56.556Z,95172.53
2019-05-07T19:14:05.888Z,95177.69
2019-05-07T19:16:34.252Z,95175.72
2019-05-07T19:19:02.592Z,95171.23
2019-05-07T19:21:32.002Z,95170.77
2019-05-07T19:26:33.603Z,95178.17
2019-05-07T19:29:05.524Z,95173.95
2019-05-07T19:32:58.533Z,95173.70
2019-05-07T19:35:26.861Z,95174.39
2019-05-07T19:37:56.125Z,95174.26
2019-05-07T19:40:24.472Z,95176.66
2019-05-07T19:42:52.824Z,95177.43
2019-05-07T19:45:24.209Z,95183.81
2019-05-07T19:47:49.501Z,95180.52
2019-05-07T19:50:17.867Z,95185.50
2019-05-07T19:52:46.204Z,95185.95
2019-05-07T19:55:14.546Z,95190.31
2019-05-07T19:57:44.238Z,95190.10
2019-05-07T20:00:12.586Z,95188.58
2019-05-07T20:02:44.745Z,95185.80
2019-05-07T20:05:13.091Z,95180.77
2019-05-07T20:07:42.329Z,95179.44
2019-05-07T20:10:12.136Z,95177.48
2019-05-07T20:15:13.269Z,95174.72
2019-05-07T20:17:41.987Z,95168.02
2019-05-07T20:22:45.129Z,95172.02
2019-05-07T20:27:48.616Z,95171.38
2019-05-07T20:30:16.972Z,95168.85
2019-05-07T20:32:46.325Z,95166.72
2019-05-07T20:35:14.676Z,95164.42
2019-05-07T20:37:43.010Z,95165.70
2019-05-07T20:40:12.189Z,95164.38
2019-05-07T20:42:43.124Z,95164.88
2019-05-07T20:45:12.241Z,95164.98
2019-05-07T20:47:42.142Z,95169.76
2019-05-07T20:50:08.165Z,95170.03
2019-05-07T20:52:41.865Z,95175.02
2019-05-07T20:55:09.545Z,95175.91
2019-05-07T20:57:42.798Z,95175.33
2019-05-07T21:00:12.253Z,95172.59
2019-05-07T21:02:45.435Z,95170.70
2019-05-07T21:05:07.945Z,95172.14
2019-05-07T21:07:36.287Z,95170.48
2019-05-07T21:10:05.376Z,95167.27
2019-05-07T21:12:37.252Z,95169.41
2019-05-07T21:15:05.602Z,95168.21
2019-05-07T21:17:33.925Z,95167.77
2019-05-07T21:20:04.833Z,95168.77
2019-05-07T21:22:34.158Z,95167.30
2019-05-07T21:25:02.790Z,95161.78
2019-05-07T21:27:34.495Z,95166.55
2019-05-07T21:30:04.747Z,95155.31
2019-05-07T21:32:38.899Z,95150.22
2019-05-07T21:35:07.325Z,95152.94
2019-05-07T21:37:41.866Z,95149.68
2019-05-07T21:40:09.736Z,95146.56
2019-05-07T21:42:39.033Z,95143.06
2019-05-07T21:45:07.375Z,95147.27
2019-05-07T21:47:35.710Z,95146.37
2019-05-07T21:50:04.962Z,95149.58
2019-05-07T21:52:33.301Z,95145.41
2019-05-07T21:55:08.052Z,95145.13
2019-05-07T21:57:41.256Z,95150.55
2019-05-07T22:03:12.876Z,95141.59
2019-05-07T22:05:52.266Z,95146.84
2019-05-07T22:08:21.915Z,95138.39
2019-05-07T22:11:04.398Z,95134.69
2019-05-07T22:13:29.125Z,95130.13
2019-05-07T22:15:57.473Z,95128.67
2019-05-07T22:18:25.803Z,95128.62
2019-05-07T22:23:28.334Z,95121.44
2019-05-07T22:26:16.655Z,95123.85
2019-05-07T22:28:32.018Z,95118.75
2019-05-07T22:34:02.155Z,95114.22
2019-05-07T22:36:28.665Z,95109.48
2019-05-07T22:39:03.057Z,95103.64
2019-05-07T22:41:31.948Z,95101.94
2019-05-07T22:43:59.727Z,95107.24
2019-05-07T22:49:03.297Z,95100.15
2019-05-07T22:51:31.608Z,95102.03
2019-05-07T22:54:03.902Z,95103.22
2019-05-07T22:56:37.616Z,95098.09
2019-05-07T22:59:04.068Z,95094.72
2019-05-07T23:01:32.394Z,95096.28
2019-05-07T23:06:37.957Z,95086.88
2019-05-07T23:09:08.192Z,95087.43
2019-05-07T23:11:37.470Z,95079.81
2019-05-07T23:14:05.814Z,95081.66
2019-05-07T23:16:43.052Z,95077.04
2019-05-07T23:19:13.879Z,95081.75
2019-05-07T23:21:38.913Z,95080.84
2019-05-07T23:24:07.320Z,95083.57
2019-05-07T23:26:47.250Z,95082.92
2019-05-07T23:29:07.298Z,95075.80
2019-05-07T23:31:36.534Z,95076.45
2019-05-07T23:36:42.090Z,95070.72
2019-05-07T23:41:42.570Z,95060.33
2019-05-07T23:44:19.436Z,95051.98
2019-05-07T23:46:47.780Z,95041.89
2019-05-07T23:49:16.121Z,95033.02
2019-05-07T23:51:44.453Z,95027.68
2019-05-07T23:54:13.744Z,95021.78
2019-05-07T23:56:42.786Z,95010.38
2019-05-07T23:59:16.683Z,95003.23
